Time;durP1;ratioP1;P1;durP2;ratioP2;P2;SDS_P1;SDS_P2;PMS_P1;PMS_P2;Temp;Humidity;BMP_temperature;BMP_pressure;BME280_temperature;BME280_humidity;BME280_pressure;Samples;Min_cycle;Max_cycle;Signal;HPM_P1;HPM_P2
2022/05/31 00:02:21;;;;;;;7.45;2.58;;;;;;;7.96;76.65;100514.22;5012569;28;20048;-74
2022/05/31 00:05:25;;;;;;;5.90;2.65;;;;;;;8.14;76.01;100508.25;5013128;28;20048;-74
2022/05/31 00:08:29;;;;;;;4.15;1.98;;;;;;;8.40;74.22;100505.47;5012539;28;20045;-74
2022/05/31 00:11:32;;;;;;;3.28;2.15;;;;;;;7.94;74.21;100495.22;5012332;28;20076;-75
2022/05/31 00:14:36;;;;;;;6.60;2.40;;;;;;;7.93;74.49;100493.53;5012077;28;20048;-75
2022/05/31 00:17:41;;;;;;;3.58;2.55;;;;;;;8.23;73.80;100500.94;5012233;28;20045;-75
2022/05/31 00:20:45;;;;;;;3.53;2.03;;;;;;;8.24;73.75;100493.09;5012088;28;20084;-74
2022/05/31 00:23:48;;;;;;;4.68;2.33;;;;;;;8.45;73.69;100498.28;5012066;28;20041;-75
2022/05/31 00:26:52;;;;;;;3.15;1.95;;;;;;;8.20;74.12;100498.47;5011885;28;20108;-75
2022/05/31 00:29:55;;;;;;;6.78;2.85;;;;;;;8.13;74.41;100501.34;5000061;28;20057;-75
2022/05/31 00:32:59;;;;;;;;;;;;;;;7.89;75.46;100500.63;5000388;28;20064;-74
2022/05/31 00:36:03;;;;;;;;;;;;;;;7.85;75.77;100499.06;5012746;28;19944;-75
2022/05/31 00:39:07;;;;;;;8.35;3.95;;;;;;;7.76;76.50;100502.03;5012416;28;19966;-74
2022/05/31 00:42:15;;;;;;;;;;;;;;;7.95;76.18;100502.13;5012413;28;20420;-75
2022/05/31 00:45:19;;;;;;;4.80;2.10;;;;;;;7.93;75.66;100510.00;5001725;28;20012;-75
2022/05/31 00:48:30;;;;;;;4.93;2.53;;;;;;;7.90;75.76;100510.13;5003515;28;20123;-75
2022/05/31 00:51:42;;;;;;;6.93;2.78;;;;;;;7.77;75.72;100506.34;5003595;28;20409;-75
2022/05/31 00:55:12;;;;;;;3.92;2.40;;;;;;;7.56;76.54;100515.88;5015779;28;20096;-75
2022/05/31 00:58:25;;;;;;;5.95;2.55;;;;;;;7.47;77.22;100513.63;5002343;28;20044;-74
2022/05/31 01:01:30;;;;;;;3.72;2.08;;;;;;;7.59;76.56;100507.91;5003274;28;20045;-74
2022/05/31 01:04:45;;;;;;;9.63;2.55;;;;;;;7.82;75.48;100513.97;5015138;28;20041;-74
2022/05/31 01:07:49;;;;;;;4.63;2.47;;;;;;;7.67;74.43;100521.47;5015414;28;20044;-74
2022/05/31 01:10:52;;;;;;;4.55;2.13;;;;;;;7.74;74.75;100516.88;5003156;28;20049;-75
2022/05/31 01:14:31;;;;;;;5.38;2.30;;;;;;;7.72;74.08;100515.22;4957053;28;20475;-75
2022/05/31 01:17:44;;;;;;;5.63;2.33;;;;;;;7.85;74.67;100516.44;5014987;28;20053;-75
2022/05/31 01:21:15;;;;;;;4.03;2.40;;;;;;;7.30;77.11;100516.03;5015077;28;20141;-74
2022/05/31 01:25:01;;;;;;;4.88;2.50;;;;;;;7.40;76.78;100517.34;5002362;28;20132;-75
2022/05/31 01:28:25;;;;;;;3.85;2.08;;;;;;;7.68;75.21;100517.97;5003070;28;20033;-74
2022/05/31 01:31:33;;;;;;;;;;;;;;;7.83;73.95;100505.25;5003009;28;20060;-75
2022/05/31 01:34:57;;;;;;;4.22;2.20;;;;;;;7.64;75.06;100503.38;5014138;28;20431;-75
2022/05/31 01:38:19;;;;;;;3.47;2.10;;;;;;;7.35;76.48;100494.13;5014695;28;20228;-75
2022/05/31 01:41:28;;;;;;;3.85;2.00;;;;;;;7.39;76.35;100500.06;4999829;28;20052;-74
2022/05/31 01:44:35;;;;;;;4.28;2.55;;;;;;;7.34;76.69;100496.78;5014928;28;20289;-74
2022/05/31 01:47:39;;;;;;;3.63;2.03;;;;;;;7.43;75.70;100496.44;5014694;28;20040;-74
2022/05/31 01:50:45;;;;;;;6.07;2.22;;;;;;;7.65;73.95;100505.06;5002521;28;20072;-74
2022/05/31 01:53:50;;;;;;;4.15;2.00;;;;;;;7.43;75.03;100494.69;5014776;28;20041;-74
2022/05/31 01:56:59;;;;;;;3.75;2.10;;;;;;;7.59;74.00;100492.31;5002873;28;20048;-74
2022/05/31 02:00:08;;;;;;;6.68;2.22;;;;;;;7.67;73.50;100485.03;5002197;28;20416;-75
2022/05/31 02:03:19;;;;;;;3.38;2.20;;;;;;;7.41;74.66;100490.47;5014451;28;20045;-74
2022/05/31 02:06:31;;;;;;;3.10;2.22;;;;;;;7.13;76.31;100488.94;5001695;28;20052;-74
2022/05/31 02:09:35;;;;;;;4.47;2.13;;;;;;;7.36;74.90;100488.03;5002128;28;20053;-74
2022/05/31 02:12:38;;;;;;;4.70;1.90;;;;;;;7.52;74.20;100490.84;5002246;28;20452;-74
2022/05/31 02:16:00;;;;;;;4.03;2.50;;;;;;;7.34;74.54;100481.19;5013940;28;20452;-74
2022/05/31 02:19:25;;;;;;;5.88;2.33;;;;;;;7.31;75.25;100478.72;5014319;28;20041;-74
2022/05/31 02:22:34;;;;;;;;;;;;;;;7.17;76.39;100489.66;5002472;28;20052;-74
2022/05/31 02:25:38;;;;;;;3.65;1.77;;;;;;;6.99;75.52;100491.22;5013457;28;20002;-74
2022/05/31 02:28:42;;;;;;;4.70;1.77;;;;;;;7.19;74.90;100483.50;5001601;28;20048;-74
2022/05/31 02:31:47;;;;;;;7.22;2.45;;;;;;;7.09;75.26;100474.34;5001857;28;20701;-74
2022/05/31 02:34:51;;;;;;;3.28;2.00;;;;;;;6.95;76.61;100479.22;5013701;28;20520;-74
2022/05/31 02:37:58;;;;;;;5.63;2.38;;;;;;;6.78;77.33;100482.47;5001732;28;20516;-74
2022/05/31 02:41:02;;;;;;;9.02;1.90;;;;;;;6.83;76.48;100484.88;5001670;28;20041;-74
2022/05/31 02:44:07;;;;;;;3.08;1.80;;;;;;;7.07;75.45;100476.16;4990233;28;20044;-74
2022/05/31 02:47:11;;;;;;;5.13;2.20;;;;;;;7.21;74.40;100473.88;4997072;28;20067;-74
2022/05/31 02:50:15;;;;;;;3.88;2.08;;;;;;;6.86;76.39;100475.25;5000999;28;20048;-74
2022/05/31 02:53:18;;;;;;;;;;;;;;;6.76;77.31;100476.47;5010178;28;20095;-74
2022/05/31 02:56:21;;;;;;;3.92;1.90;;;;;;;6.79;76.61;100470.31;5001145;28;20272;-74
2022/05/31 02:59:43;;;;;;;4.63;1.98;;;;;;;6.80;75.88;100469.44;5013227;28;20405;-74
2022/05/31 03:03:05;;;;;;;3.13;1.75;;;;;;;6.91;75.37;100462.91;5013288;28;20160;-74
2022/05/31 03:06:27;;;;;;;2.80;1.60;;;;;;;7.02;74.44;100459.03;5013320;28;20108;-74
2022/05/31 03:09:40;;;;;;;2.90;1.70;;;;;;;6.98;74.38;100463.50;5000162;28;20507;-74
2022/05/31 03:12:45;;;;;;;3.67;2.00;;;;;;;7.02;73.73;100470.31;5013103;28;20048;-75
2022/05/31 03:15:48;;;;;;;3.22;1.50;;;;;;;7.10;73.59;100470.84;5013151;28;20465;-74
2022/05/31 03:19:01;;;;;;;4.90;1.60;;;;;;;6.94;73.91;100478.38;5013002;28;20044;-74
2022/05/31 03:22:11;;;;;;;4.80;1.90;;;;;;;6.92;74.12;100469.81;5000891;28;20060;-74
2022/05/31 03:25:23;;;;;;;4.45;1.90;;;;;;;6.89;73.97;100464.72;5013176;28;20559;-74
2022/05/31 03:28:27;;;;;;;3.88;1.80;;;;;;;6.70;74.31;100464.56;5000913;28;20103;-74
2022/05/31 03:31:31;;;;;;;4.13;1.90;;;;;;;6.93;73.75;100463.69;5000720;28;20476;-74
2022/05/31 03:34:34;;;;;;;3.58;2.00;;;;;;;7.01;73.01;100458.19;5000237;28;20064;-74
2022/05/31 03:37:38;;;;;;;5.90;1.92;;;;;;;7.07;72.80;100457.13;5000955;28;20100;-74
2022/05/31 03:40:56;;;;;;;3.97;1.35;;;;;;;7.02;72.84;100456.44;5000568;28;20067;-74
2022/05/31 03:44:01;;;;;;;4.28;2.05;;;;;;;6.48;75.23;100464.50;5000507;28;20049;-74
2022/05/31 03:47:25;;;;;;;3.72;1.95;;;;;;;6.70;75.53;100468.91;5009752;28;20056;-74
2022/05/31 03:50:57;;;;;;;3.42;1.50;;;;;;;6.71;74.61;100461.06;5012678;28;20826;-74
2022/05/31 03:54:00;;;;;;;4.72;1.80;;;;;;;6.85;74.45;100457.94;5000272;28;20056;-74
2022/05/31 03:57:23;;;;;;;4.20;1.23;;;;;;;6.42;76.24;100464.72;5011053;28;20069;-74
2022/05/31 04:00:37;;;;;;;4.90;1.80;;;;;;;6.25;76.99;100452.34;5011607;28;20567;-74
2022/05/31 04:03:57;;;;;;;5.85;2.10;;;;;;;6.15;77.76;100450.97;5000322;28;20416;-74
2022/05/31 04:07:00;;;;;;;3.85;1.77;;;;;;;6.23;77.67;100453.31;5000223;28;20539;-74
2022/05/31 04:10:07;;;;;;;4.13;1.90;;;;;;;6.15;77.78;100453.56;4999332;28;20115;-74
2022/05/31 04:13:12;;;;;;;4.05;1.88;;;;;;;6.18;78.00;100448.25;5000348;28;20076;-73
2022/05/31 04:16:35;;;;;;;5.70;1.63;;;;;;;6.56;76.79;100448.63;5012409;28;20041;-74
2022/05/31 04:19:40;;;;;;;6.07;2.53;;;;;;;6.55;76.65;100449.53;5001393;28;20535;-75
2022/05/31 04:22:44;;;;;;;5.10;1.67;;;;;;;6.66;75.99;100449.97;5016702;28;20096;-74
2022/05/31 04:26:33;;;;;;;5.10;1.92;;;;;;;6.45;76.23;100461.19;5005984;28;20049;-74
2022/05/31 04:29:55;;;;;;;2.92;1.38;;;;;;;6.55;76.04;100459.94;5016414;28;20440;-74
2022/05/31 04:33:17;;;;;;;5.35;1.63;;;;;;;6.80;74.62;100446.88;5016431;28;20044;-75
2022/05/31 04:36:21;;;;;;;3.40;2.03;;;;;;;6.65;75.96;100450.88;4988631;28;20046;-76
2022/05/31 04:39:27;;;;;;;3.67;1.67;;;;;;;6.73;75.79;100448.88;4996842;28;20490;-75
2022/05/31 04:42:37;;;;;;;5.00;1.90;;;;;;;6.85;75.69;100444.94;4983181;28;20048;-76
2022/05/31 04:45:43;;;;;;;5.50;2.33;;;;;;;6.99;75.29;100449.63;4984658;28;20120;-73
2022/05/31 04:49:05;;;;;;;7.15;1.77;;;;;;;7.30;74.59;100444.03;4996155;28;20054;-75
2022/05/31 04:52:12;;;;;;;3.75;1.42;;;;;;;7.38;73.30;100449.81;4996604;28;20124;-75
2022/05/31 04:55:25;;;;;;;4.72;1.52;;;;;;;7.18;73.92;100450.59;4983959;28;20050;-75
2022/05/31 04:58:29;;;;;;;3.92;1.88;;;;;;;7.40;74.02;100449.72;4983155;28;20413;-75
2022/05/31 05:01:36;;;;;;;7.03;3.75;;;;;;;7.50;73.65;100442.38;4995511;28;20178;-75
2022/05/31 05:04:47;;;;;;;8.85;3.30;;;;;;;7.74;73.25;100441.38;4984317;28;20093;-75
2022/05/31 05:08:16;;;;;;;5.88;2.17;;;;;;;7.66;73.61;100451.28;4984180;28;20116;-75
2022/05/31 05:11:22;;;;;;;5.90;1.55;;;;;;;7.74;73.76;100448.34;4995235;28;20122;-75
2022/05/31 05:14:44;;;;;;;4.47;1.80;;;;;;;7.81;73.96;100444.56;4996039;28;20168;-75
2022/05/31 05:17:56;;;;;;;4.38;2.00;;;;;;;7.71;75.06;100446.72;4983993;28;20053;-75
2022/05/31 05:21:02;;;;;;;5.53;1.58;;;;;;;7.65;75.08;100442.59;4995753;28;20064;-75
2022/05/31 05:24:06;;;;;;;4.32;1.60;;;;;;;7.99;73.50;100438.59;4983608;28;20057;-75
2022/05/31 05:27:23;;;;;;;5.57;1.58;;;;;;;8.14;73.52;100444.91;4983728;28;20046;-75
2022/05/31 05:30:44;;;;;;;3.83;1.70;;;;;;;7.86;75.05;100429.63;4995354;28;20174;-75
2022/05/31 05:33:58;;;;;;;6.82;4.38;;;;;;;8.03;74.41;100427.13;4995568;28;20061;-75
2022/05/31 05:37:26;;;;;;;6.50;2.15;;;;;;;7.96;75.20;100423.09;4983338;28;20506;-75
2022/05/31 05:40:31;;;;;;;5.80;2.63;;;;;;;7.96;75.77;100425.72;4972054;28;20053;-75
2022/05/31 05:43:43;;;;;;;4.15;2.00;;;;;;;8.16;76.09;100415.25;4994712;28;20085;-75
2022/05/31 05:46:50;;;;;;;8.35;1.63;;;;;;;8.23;75.46;100412.38;4983405;28;20166;-75
2022/05/31 05:49:54;;;;;;;4.10;1.85;;;;;;;8.14;75.29;100417.09;4995109;28;20049;-75
2022/05/31 05:53:18;;;;;;;;;;;;;;;8.04;76.69;100414.94;4985201;28;20052;-75
2022/05/31 05:56:53;;;;;;;8.68;2.28;;;;;;;8.13;76.53;100404.13;4988565;28;20296;-75
2022/05/31 06:00:16;;;;;;;4.60;1.48;;;;;;;8.36;75.40;100410.94;4995017;28;20577;-74
2022/05/31 06:03:44;;;;;;;8.70;2.15;;;;;;;8.49;75.28;100400.84;4994932;28;20069;-75
2022/05/31 06:07:08;;;;;;;3.55;1.70;;;;;;;8.51;76.03;100393.78;4982242;28;20065;-75
2022/05/31 06:10:23;;;;;;;6.85;1.73;;;;;;;8.62;76.27;100391.56;4982819;28;20050;-75
2022/05/31 06:13:31;;;;;;;6.65;2.03;;;;;;;8.67;77.06;100391.31;4983072;28;20077;-75
2022/05/31 06:16:39;;;;;;;3.97;1.80;;;;;;;8.93;76.52;100384.88;4982874;28;20049;-75
2022/05/31 06:19:45;;;;;;;5.05;1.98;;;;;;;8.93;76.97;100387.50;4994835;28;20041;-75
2022/05/31 06:22:49;;;;;;;6.63;1.75;;;;;;;9.13;76.24;100376.13;4982856;28;20133;-75
2022/05/31 06:25:57;;;;;;;5.65;1.65;;;;;;;9.23;76.49;100374.75;4982411;28;20047;-75
2022/05/31 06:29:22;;;;;;;4.43;1.83;;;;;;;9.36;74.76;100372.38;4982492;28;20458;-75
2022/05/31 06:32:25;;;;;;;3.88;2.00;;;;;;;9.50;74.24;100373.34;4982072;28;20145;-75
2022/05/31 06:35:29;;;;;;;;;;;;;;;9.53;73.82;100370.59;4982586;28;20457;-75
2022/05/31 06:38:37;;;;;;;4.95;1.60;;;;;;;9.73;73.54;100371.34;4993710;28;19920;-75
2022/05/31 06:41:40;;;;;;;5.40;2.03;;;;;;;9.87;73.74;100363.66;4994309;28;20033;-75
2022/05/31 06:45:04;;;;;;;5.22;1.85;;;;;;;9.97;71.88;100370.09;4994311;28;20108;-75
2022/05/31 06:48:28;;;;;;;4.90;1.85;;;;;;;10.13;70.95;100370.13;4974609;28;20066;-75
2022/05/31 06:59:08;;;;;;;6.88;2.42;;;;;;;10.34;70.74;100352.50;4982039;28;20133;-75
2022/05/31 07:02:12;;;;;;;5.35;1.90;;;;;;;10.43;70.07;100346.78;4981947;28;20049;-75
2022/05/31 07:05:16;;;;;;;;;;;;;;;10.52;69.95;100340.19;4982290;28;20122;-75
2022/05/31 07:08:19;;;;;;;4.90;1.88;;;;;;;10.67;69.59;100341.13;4992973;28;19940;-75
2022/05/31 07:11:35;;;;;;;6.28;2.00;;;;;;;10.71;68.81;100337.41;4644990;28;10000380;-75
2022/05/31 07:15:05;;;;;;;7.70;2.30;;;;;;;10.89;69.26;100322.44;4993709;28;20441;-75
2022/05/31 07:18:31;;;;;;;5.53;1.85;;;;;;;10.99;68.80;100325.38;4993543;28;20103;-75
2022/05/31 07:21:35;;;;;;;4.97;1.67;;;;;;;11.06;69.26;100324.09;4981627;28;20453;-75
2022/05/31 07:24:42;;;;;;;9.02;2.42;;;;;;;11.27;69.59;100311.56;4993449;28;20048;-75
2022/05/31 07:27:52;;;;;;;3.90;1.80;;;;;;;11.44;68.55;100313.19;4280563;28;10000897;-75
2022/05/31 07:30:57;;;;;;;6.20;2.38;;;;;;;11.53;67.18;100312.63;4959721;28;20049;-75
2022/05/31 07:34:02;;;;;;;8.18;2.33;;;;;;;11.51;67.80;100312.72;4970468;28;20163;-75
2022/05/31 07:37:06;;;;;;;6.78;2.10;;;;;;;11.61;67.63;100320.84;4972265;28;20110;-75
2022/05/31 07:40:09;;;;;;;5.15;1.45;;;;;;;11.67;67.25;100315.25;4971811;28;20554;-75
2022/05/31 07:43:13;;;;;;;5.85;1.77;;;;;;;12.09;68.83;100300.50;4971717;28;20085;-75
2022/05/31 07:46:19;;;;;;;4.47;1.83;;;;;;;12.58;66.44;100313.16;4971281;28;20062;-74
2022/05/31 07:49:22;;;;;;;7.72;1.88;;;;;;;12.36;65.10;100307.59;4960583;28;20050;-75
2022/05/31 07:52:32;;;;;;;7.95;2.33;;;;;;;12.56;66.82;100301.91;4960895;28;20437;-75
2022/05/31 07:56:06;;;;;;;6.75;2.22;;;;;;;12.79;64.56;100292.53;4971628;28;20667;-74
2022/05/31 07:59:45;;;;;;;4.38;1.70;;;;;;;12.90;65.04;100294.50;4942704;28;20114;-75
2022/05/31 08:03:25;;;;;;;4.93;1.83;;;;;;;12.88;65.14;100291.13;4993054;28;20061;-75
2022/05/31 08:06:31;;;;;;;6.35;1.67;;;;;;;13.12;65.08;100271.13;4992799;28;20041;-75
2022/05/31 08:09:34;;;;;;;7.85;1.98;;;;;;;13.21;65.24;100272.31;4993075;28;20181;-75
2022/05/31 08:12:38;;;;;;;5.38;1.85;;;;;;;13.23;64.69;100267.78;4991952;28;20606;-75
2022/05/31 08:15:42;;;;;;;4.88;1.77;;;;;;;13.32;64.90;100268.97;4992749;28;20049;-75
2022/05/31 08:18:46;;;;;;;9.13;2.10;;;;;;;13.31;63.56;100259.44;4992658;28;20081;-76
2022/05/31 08:21:49;;;;;;;6.78;1.70;;;;;;;13.50;64.03;100257.22;4992666;28;20046;-75
2022/05/31 08:24:53;;;;;;;;;;;;;;;13.67;63.57;100248.16;4986297;28;20061;-75
2022/05/31 08:27:56;;;;;;;2.65;1.10;;;;;;;13.69;63.46;100255.00;4992820;28;20013;-76
2022/05/31 08:31:07;;;;;;;10.57;1.45;;;;;;;13.81;62.91;100241.94;4992427;28;20061;-75
2022/05/31 08:34:13;;;;;;;7.22;1.60;;;;;;;14.59;60.03;100234.56;4992424;28;20176;-74
2022/05/31 08:37:17;;;;;;;6.32;2.13;;;;;;;14.83;59.85;100236.31;4992533;28;20049;-76
2022/05/31 08:40:21;;;;;;;6.85;1.55;;;;;;;14.80;60.62;100237.38;4992548;28;20512;-79
2022/05/31 08:43:42;;;;;;;8.13;1.20;;;;;;;14.60;60.55;100233.59;4992887;28;20203;-76
2022/05/31 08:47:04;;;;;;;4.22;1.45;;;;;;;14.98;59.93;100222.00;4992356;28;20082;-75
2022/05/31 08:57:34;;;;;;;5.40;1.30;;;;;;;15.32;59.57;100224.72;4991731;28;20142;-81
2022/05/31 09:00:42;;;;;;;9.75;1.20;;;;;;;15.27;60.00;100229.50;4992518;28;20049;-74
2022/05/31 09:03:51;;;;;;;4.47;1.33;;;;;;;15.22;61.11;100210.56;4992441;28;20521;-74
2022/05/31 09:07:01;;;;;;;5.00;1.20;;;;;;;15.40;59.42;100205.69;4994735;28;20414;-74
2022/05/31 09:10:12;;;;;;;3.97;1.20;;;;;;;15.33;58.65;100200.06;4983980;28;20056;-75
2022/05/31 09:13:17;;;;;;;5.20;1.42;;;;;;;15.45;60.14;100196.47;4996095;28;20053;-75
2022/05/31 09:16:33;;;;;;;6.60;1.45;;;;;;;15.81;58.70;100202.47;4996656;28;20108;-75
2022/05/31 09:19:44;;;;;;;3.80;1.10;;;;;;;15.84;59.09;100190.84;4984745;28;20098;-75
2022/05/31 09:22:48;;;;;;;5.38;1.20;;;;;;;16.07;58.60;100189.00;4997454;28;20053;-75
2022/05/31 09:26:04;;;;;;;7.43;1.08;;;;;;;15.98;57.98;100183.50;4997897;28;20136;-74
2022/05/31 09:29:16;;;;;;;3.42;1.17;;;;;;;16.39;55.83;100187.22;4996981;28;20088;-74
2022/05/31 09:32:58;;;;;;;6.00;1.30;;;;;;;16.45;54.56;100180.59;4995924;28;20097;-76
2022/05/31 09:36:29;;;;;;;3.33;1.02;;;;;;;16.56;54.46;100175.31;4995559;28;20097;-76
2022/05/31 09:39:59;;;;;;;3.58;1.23;;;;;;;16.52;54.69;100171.22;4995673;28;20096;-76
2022/05/31 09:43:20;;;;;;;4.03;1.15;;;;;;;16.61;54.44;100166.97;4995658;28;20070;-76
2022/05/31 09:46:41;;;;;;;4.82;1.70;;;;;;;16.66;53.60;100172.72;4995292;28;20048;-75
2022/05/31 09:49:47;;;;;;;4.95;1.38;;;;;;;16.67;54.61;100169.94;4995412;28;20048;-76
2022/05/31 09:52:56;;;;;;;4.90;1.30;;;;;;;16.74;54.56;100167.63;4995619;28;20069;-76
2022/05/31 09:59:28;;;;;;;3.42;1.10;;;;;;;16.83;54.13;100158.13;4982208;28;20049;-75
2022/05/31 10:03:08;;;;;;;3.80;1.13;;;;;;;16.87;53.08;100170.09;5002021;28;20057;-76
2022/05/31 10:06:15;;;;;;;3.72;0.95;;;;;;;16.80;52.67;100161.88;5014619;28;20056;-75
2022/05/31 10:09:19;;;;;;;3.67;0.98;;;;;;;16.68;52.91;100166.34;5002463;28;20072;-75
2022/05/31 10:12:26;;;;;;;3.58;1.00;;;;;;;16.64;53.60;100158.81;4995498;28;20049;-76
2022/05/31 10:15:49;;;;;;;3.45;0.90;;;;;;;16.63;51.35;100157.16;4996854;28;20117;-75
2022/05/31 10:18:59;;;;;;;2.40;0.82;;;;;;;16.61;52.73;100164.34;5013195;28;20049;-75
2022/05/31 10:22:20;;;;;;;4.28;1.00;;;;;;;16.52;57.63;100166.78;5014678;28;20088;-75
2022/05/31 10:25:49;;;;;;;2.95;1.23;;;;;;;16.41;57.29;100172.09;5014107;28;20402;-76
2022/05/31 10:29:17;;;;;;;3.97;1.27;;;;;;;16.26;60.13;100165.44;5014376;28;20080;-75
2022/05/31 10:32:56;;;;;;;4.90;1.23;;;;;;;16.09;60.78;100169.47;5006156;28;20056;-76
2022/05/31 10:36:31;;;;;;;5.30;1.35;;;;;;;16.03;61.54;100164.69;5014235;28;20049;-76
2022/05/31 10:39:37;;;;;;;5.50;1.00;;;;;;;15.98;61.88;100169.47;5012576;28;20041;-76
2022/05/31 10:42:44;;;;;;;1.65;0.70;;;;;;;15.97;63.23;100173.91;5013773;28;20463;-76
2022/05/31 10:45:47;;;;;;;5.18;1.38;;;;;;;15.98;63.86;100172.94;5013736;28;20516;-76
2022/05/31 10:48:54;;;;;;;4.43;1.23;;;;;;;16.08;65.24;100177.47;5013873;28;20091;-76
2022/05/31 10:52:19;;;;;;;3.67;0.90;;;;;;;16.21;61.69;100178.19;5013939;28;20040;-76
2022/05/31 10:55:29;;;;;;;5.35;1.23;;;;;;;16.41;55.95;100185.31;5013723;28;20106;-76
2022/05/31 10:58:35;;;;;;;5.15;1.13;;;;;;;16.41;51.64;100193.22;5001774;28;20049;-75
2022/05/31 11:01:49;;;;;;;3.65;1.00;;;;;;;16.27;50.16;100188.22;5013523;28;20498;-75
2022/05/31 11:04:57;;;;;;;3.10;0.95;;;;;;;16.34;49.71;100189.41;5013410;28;20076;-75
2022/05/31 11:11:57;;;;;;;3.08;1.02;;;;;;;16.79;48.54;100178.69;5005818;28;20096;-76
2022/05/31 11:15:41;;;;;;;4.65;0.70;;;;;;;16.83;45.62;100181.91;5013757;28;20084;-76
2022/05/31 11:18:53;;;;;;;1.80;0.55;;;;;;;17.00;45.86;100180.47;5006461;28;20068;-75
2022/05/31 11:22:25;;;;;;;3.53;1.00;;;;;;;17.17;42.58;100186.00;5013399;28;20164;-76
2022/05/31 11:26:00;;;;;;;2.25;0.70;;;;;;;17.18;43.64;100186.84;5013259;28;20136;-76
2022/05/31 11:29:33;;;;;;;2.35;0.63;;;;;;;17.14;45.10;100182.78;5012948;28;20045;-76
2022/05/31 11:32:49;;;;;;;4.55;1.27;;;;;;;17.03;44.82;100172.28;5013102;28;20044;-76
2022/05/31 11:36:09;;;;;;;3.40;0.80;;;;;;;17.26;46.91;100163.25;4993499;28;20053;-76
2022/05/31 11:39:13;;;;;;;3.97;0.95;;;;;;;17.54;45.13;100163.50;4993224;28;20049;-76
2022/05/31 11:42:41;;;;;;;4.43;0.90;;;;;;;17.68;43.93;100157.84;4993259;28;20261;-76
2022/05/31 11:45:55;;;;;;;2.92;0.60;;;;;;;17.86;41.96;100168.63;4993333;28;20049;-76
2022/05/31 11:49:09;;;;;;;2.47;0.73;;;;;;;17.99;38.06;100168.38;4993167;28;20060;-75
2022/05/31 11:52:30;;;;;;;2.05;0.60;;;;;;;17.92;35.85;100168.09;4993145;28;20049;-76
2022/05/31 11:55:48;;;;;;;1.97;0.50;;;;;;;18.19;34.81;100164.81;4993081;28;20150;-76
2022/05/31 11:58:52;;;;;;;3.15;0.70;;;;;;;18.28;35.21;100163.97;4991780;28;20044;-76
2022/05/31 12:02:12;;;;;;;3.05;0.70;;;;;;;18.27;35.63;100162.28;4992854;28;20129;-75
2022/05/31 12:05:18;;;;;;;2.28;0.70;;;;;;;18.32;38.50;100165.38;4992946;28;20049;-75
2022/05/31 12:08:29;;;;;;;2.92;0.70;;;;;;;18.45;36.74;100158.97;4992746;28;20045;-75
2022/05/31 12:11:42;;;;;;;5.65;1.00;;;;;;;18.49;36.88;100155.03;4992858;28;20446;-75
2022/05/31 12:14:55;;;;;;;3.15;1.00;;;;;;;18.70;37.82;100158.38;4992663;28;20061;-75
2022/05/31 12:18:18;;;;;;;3.78;1.17;;;;;;;18.46;38.62;100155.31;4992761;28;20088;-76
2022/05/31 12:21:21;;;;;;;3.58;0.60;;;;;;;18.54;39.49;100158.13;4992419;28;20127;-76
2022/05/31 12:24:31;;;;;;;2.42;1.00;;;;;;;18.85;36.84;100145.53;5012260;28;20052;-75
2022/05/31 12:27:43;;;;;;;2.83;0.73;;;;;;;18.82;31.96;100153.78;5012165;28;20057;-75
2022/05/31 12:31:02;;;;;;;5.13;1.10;;;;;;;18.92;32.56;100136.06;5012374;28;20507;-76
2022/05/31 12:34:21;;;;;;;2.33;0.82;;;;;;;19.16;33.51;100145.34;5012203;28;20052;-76
2022/05/31 12:37:25;;;;;;;3.13;0.80;;;;;;;19.67;31.79;100126.28;4992726;28;20045;-75
2022/05/31 12:40:36;;;;;;;1.80;0.57;;;;;;;19.90;32.32;100121.38;5012674;28;20509;-75
2022/05/31 12:43:47;;;;;;;2.90;0.80;;;;;;;20.07;32.21;100111.78;5016865;28;20604;-76
2022/05/31 12:46:52;;;;;;;3.78;1.13;;;;;;;20.36;32.50;100108.88;5016752;28;20048;-75
2022/05/31 12:50:05;;;;;;;3.17;0.85;;;;;;;20.76;32.19;100109.38;5016422;28;20045;-75
2022/05/31 12:56:30;;;;;;;3.85;0.80;;;;;;;20.19;32.04;100130.97;5016148;28;20184;-76
2022/05/31 12:59:44;;;;;;;2.58;0.77;;;;;;;20.51;31.91;100122.47;5016042;28;20044;-76
2022/05/31 13:02:47;;;;;;;3.25;0.88;;;;;;;20.55;32.45;100120.31;5015366;28;20056;-76
2022/05/31 13:06:09;;;;;;;3.60;0.80;;;;;;;20.99;31.86;100118.47;5016154;28;20104;-76
2022/05/31 13:09:25;;;;;;;3.35;0.80;;;;;;;20.34;33.01;100115.34;5014625;28;20508;-76
2022/05/31 13:19:38;;;;;;;4.72;0.90;;;;;;;19.10;37.24;100090.25;5015021;28;20056;-76
2022/05/31 13:22:46;;;;;;;2.58;0.73;;;;;;;18.95;36.67;100101.34;5015349;28;20049;-76
2022/05/31 13:26:00;;;;;;;1.92;0.60;;;;;;;18.64;37.06;100102.50;5015298;28;20053;-76
2022/05/31 13:29:08;;;;;;;4.30;0.85;;;;;;;18.52;38.67;100121.19;5015612;28;20056;-76
2022/05/31 13:32:11;;;;;;;2.80;1.00;;;;;;;18.41;43.16;100152.25;5010641;28;20061;-76
2022/05/31 13:35:16;;;;;;;6.53;1.10;;;;;;;18.07;47.47;100202.94;5014987;28;20091;-76
2022/05/31 13:38:26;;;;;;;4.10;1.38;;;;;;;17.43;52.88;100210.19;5003082;28;20052;-76
2022/05/31 13:41:31;;;;;;;5.22;1.30;;;;;;;16.95;54.18;100208.13;5015294;28;20070;-76
2022/05/31 13:44:39;;;;;;;6.25;1.52;;;;;;;19.43;51.51;100171.88;5015270;28;20516;-77
2022/05/31 13:48:12;;;;;;;4.03;1.15;;;;;;;20.41;49.28;100172.16;5015221;28;20147;-76
2022/05/31 13:51:25;;;;;;;4.90;1.00;;;;;;;18.35;54.42;100202.13;5010488;28;20041;-76
2022/05/31 13:54:40;;;;;;;6.80;1.27;;;;;;;20.08;52.53;100190.41;5014722;28;20108;-77
2022/05/31 13:57:53;;;;;;;5.85;1.25;;;;;;;21.33;51.57;100182.31;5015120;28;20401;-76
2022/05/31 14:00:57;;;;;;;4.60;1.17;;;;;;;21.22;48.50;100197.69;5015028;28;20037;-76
2022/05/31 14:04:22;;;;;;;3.08;0.80;;;;;;;22.87;44.86;100198.88;5014943;28;20041;-77
2022/05/31 14:07:35;;;;;;;3.03;1.38;;;;;;;23.47;41.20;100205.63;5014595;28;20547;-76
2022/05/31 14:10:48;;;;;;;35.35;27.38;;;;;;;24.37;39.35;100205.19;5014423;28;20183;-76
2022/05/31 14:13:56;;;;;;;5.50;3.45;;;;;;;25.76;36.05;100209.28;5014549;28;20436;-76
2022/05/31 14:17:02;;;;;;;4.43;1.80;;;;;;;28.86;31.93;100189.22;5014725;28;20052;-77
2022/05/31 14:20:17;;;;;;;5.80;2.10;;;;;;;27.61;32.52;100195.09;5014461;28;20064;-77
2022/05/31 14:23:26;;;;;;;4.03;1.48;;;;;;;27.75;32.84;100202.16;5014493;28;20053;-76
2022/05/31 14:26:33;;;;;;;2.53;0.93;;;;;;;28.00;31.30;100192.59;5012698;28;20515;-76
2022/05/31 14:29:37;;;;;;;3.70;1.20;;;;;;;28.37;30.70;100187.72;5013795;28;20413;-76
2022/05/31 14:32:47;;;;;;;4.45;1.13;;;;;;;29.51;28.61;100193.88;5014210;28;20095;-76
2022/05/31 14:35:53;;;;;;;4.68;1.30;;;;;;;30.57;26.23;100183.41;5014395;28;20049;-76
2022/05/31 14:38:57;;;;;;;5.18;1.20;;;;;;;30.67;25.38;100177.53;5013790;28;20121;-77
2022/05/31 14:42:02;;;;;;;3.00;1.13;;;;;;;31.62;24.47;100174.53;5014174;28;20053;-76
2022/05/31 14:45:12;;;;;;;2.13;0.85;;;;;;;31.72;23.40;100180.22;5014148;28;20105;-77
2022/05/31 14:48:41;;;;;;;2.58;1.17;;;;;;;29.91;24.69;100174.91;5013953;28;20200;-76
2022/05/31 14:51:49;;;;;;;2.55;0.82;;;;;;;27.51;28.58;100182.88;5013023;28;20044;-77
2022/05/31 14:55:03;;;;;;;6.05;1.30;;;;;;;24.25;35.02;100190.59;5013492;28;20456;-77
2022/05/31 15:01:44;;;;;;;3.78;0.77;;;;;;;24.46;33.28;100187.31;5013682;28;20038;-76
2022/05/31 15:04:53;;;;;;;2.33;0.77;;;;;;;24.22;33.39;100175.75;5012910;28;20095;-76
2022/05/31 15:08:01;;;;;;;2.53;1.10;;;;;;;26.19;30.28;100174.56;5013580;28;20053;-76
2022/05/31 15:21:14;;;;;;;;;;;;;;;28.22;26.86;100157.50;5013579;28;20040;-76
2022/05/31 15:24:36;;;;;;;3.50;0.98;;;;;;;24.76;32.18;100170.38;5009588;28;19936;-76
2022/05/31 15:27:40;;;;;;;2.72;0.90;;;;;;;24.58;31.73;100169.84;5013250;28;20107;-76
2022/05/31 15:30:44;;;;;;;3.13;0.93;;;;;;;25.82;29.25;100164.91;5013294;28;20049;-76
2022/05/31 15:33:48;;;;;;;2.65;0.77;;;;;;;27.65;27.78;100164.13;5013065;28;20512;-76
2022/05/31 15:36:53;;;;;;;1.95;0.82;;;;;;;28.07;26.42;100157.66;5012969;28;20532;-76
2022/05/31 15:39:57;;;;;;;6.50;1.23;;;;;;;29.27;25.28;100153.16;5013025;28;20049;-76
2022/05/31 15:43:02;;;;;;;3.58;0.93;;;;;;;28.10;26.13;100159.13;5012934;28;20084;-77
2022/05/31 15:46:06;;;;;;;3.25;1.00;;;;;;;29.00;25.62;100152.34;5013176;28;20045;-77
2022/05/31 15:49:09;;;;;;;3.55;1.25;;;;;;;28.38;26.47;100159.78;5007766;28;20061;-77